createdAt,value
2018-04-29T00:02:05.500Z,16.94
2018-04-29T00:04:34.501Z,16.93
2018-04-29T00:07:03.519Z,16.90
2018-04-29T00:09:31.754Z,16.89
2018-04-29T00:12:00.773Z,16.82
2018-04-29T00:14:29.014Z,16.86
2018-04-29T00:16:58.778Z,16.90
2018-04-29T00:19:27.009Z,16.79
2018-04-29T00:21:57.022Z,16.76
2018-04-29T00:24:26.773Z,16.77
2018-04-29T00:26:55.018Z,16.75
2018-04-29T00:29:24.283Z,16.72
2018-04-29T00:31:52.518Z,16.71
2018-04-29T00:34:20.754Z,16.66
2018-04-29T00:36:49.006Z,16.69
2018-04-29T00:39:17.330Z,16.67
2018-04-29T00:41:45.582Z,16.67
2018-04-29T00:44:15.330Z,16.62
2018-04-29T00:46:43.579Z,16.56
2018-04-29T00:49:12.577Z,16.54
2018-04-29T00:51:59.481Z,16.56
2018-04-29T00:54:28.489Z,16.60
2018-04-29T00:56:57.500Z,16.52
2018-04-29T00:59:25.761Z,16.46
2018-04-29T01:01:54.762Z,16.38
2018-04-29T01:04:23.778Z,16.37
2018-04-29T01:06:52.040Z,16.34
2018-04-29T01:09:20.282Z,16.35
2018-04-29T01:11:49.301Z,16.20
2018-04-29T01:14:17.561Z,16.26
2018-04-29T01:16:46.558Z,16.26
2018-04-29T01:19:15.865Z,16.26
2018-04-29T01:21:44.885Z,16.25
2018-04-29T01:24:13.133Z,16.27
2018-04-29T01:26:42.139Z,16.31
2018-04-29T01:29:10.602Z,16.30
2018-04-29T01:31:39.607Z,16.31
2018-04-29T01:34:07.838Z,16.33
2018-04-29T01:36:36.260Z,16.37
2018-04-29T01:39:05.277Z,16.43
2018-04-29T01:41:33.519Z,16.40
2018-04-29T01:44:02.534Z,16.38
2018-04-29T01:46:30.761Z,16.37
2018-04-29T01:48:59.778Z,16.36
2018-04-29T01:51:28.791Z,16.35
2018-04-29T01:53:57.030Z,16.45
2018-04-29T01:56:26.786Z,16.47
2018-04-29T01:58:55.018Z,16.30
2018-04-29T02:01:23.259Z,16.25
2018-04-29T02:03:51.506Z,16.26
2018-04-29T02:06:19.749Z,16.20
2018-04-29T02:08:48.762Z,16.25
2018-04-29T02:11:17.756Z,16.21
2018-04-29T02:13:45.994Z,16.21
2018-04-29T02:16:14.242Z,16.04
2018-04-29T02:18:42.486Z,15.92
2018-04-29T02:21:11.559Z,15.85
2018-04-29T02:23:40.577Z,15.74
2018-04-29T02:26:09.719Z,15.70
2018-04-29T02:28:37.985Z,15.66
2018-04-29T02:31:06.250Z,15.66
2018-04-29T02:33:34.505Z,15.67
2018-04-29T02:36:02.788Z,15.56
2018-04-29T02:38:31.017Z,15.53
2018-04-29T02:41:00.799Z,15.50
2018-04-29T02:43:30.046Z,15.52
2018-04-29T02:45:59.088Z,15.49
2018-04-29T02:48:27.375Z,15.38
2018-04-29T02:50:55.619Z,15.37
2018-04-29T02:53:23.869Z,15.37
2018-04-29T02:55:52.382Z,15.37
2018-04-29T02:58:20.673Z,15.24
2018-04-29T03:00:48.943Z,15.31
2018-04-29T03:03:17.237Z,15.28
2018-04-29T03:05:45.485Z,15.20
2018-04-29T03:08:13.742Z,15.13
2018-04-29T03:10:42.014Z,15.11
2018-04-29T03:13:10.246Z,15.02
2018-04-29T03:15:39.266Z,14.96
2018-04-29T03:18:08.309Z,14.92
2018-04-29T03:20:36.577Z,14.93
2018-04-29T03:23:04.818Z,14.87
2018-04-29T03:25:34.097Z,15.02
2018-04-29T03:28:03.146Z,14.87
2018-04-29T03:30:31.438Z,14.86
2018-04-29T03:32:59.719Z,14.73
2018-04-29T03:35:27.963Z,14.81
2018-04-29T03:37:56.217Z,14.75
2018-04-29T03:40:25.236Z,14.90
2018-04-29T03:42:53.468Z,14.73
2018-04-29T03:45:21.693Z,14.68
2018-04-29T03:47:49.943Z,14.71
2018-04-29T03:50:18.952Z,14.76
2018-04-29T03:52:47.191Z,14.74
2018-04-29T03:55:15.437Z,14.67
2018-04-29T03:58:01.400Z,14.68
2018-04-29T04:01:02.494Z,14.71
2018-04-29T04:03:44.427Z,14.67
2018-04-29T04:06:12.925Z,14.71
2018-04-29T04:08:41.176Z,14.74
2018-04-29T04:11:10.171Z,14.77
2018-04-29T04:13:39.189Z,14.70
2018-04-29T04:16:08.118Z,14.60
2018-04-29T04:18:36.378Z,14.61
2018-04-29T04:21:04.607Z,14.60
2018-04-29T04:23:33.616Z,14.59
2018-04-29T04:26:01.873Z,14.50
2018-04-29T04:28:30.110Z,14.45
2018-04-29T04:30:58.343Z,14.50
2018-04-29T04:33:26.584Z,14.52
2018-04-29T04:35:55.585Z,14.59
2018-04-29T04:38:24.610Z,14.63
2018-04-29T04:40:52.846Z,14.66
2018-04-29T04:43:21.838Z,14.66
2018-04-29T04:45:50.858Z,14.68
2018-04-29T04:48:19.094Z,14.68
2018-04-29T04:50:48.102Z,14.75
2018-04-29T04:53:17.109Z,14.67
2018-04-29T04:55:46.280Z,14.72
2018-04-29T04:58:15.291Z,14.78
2018-04-29T05:00:45.006Z,14.83
2018-04-29T05:03:14.102Z,14.82
2018-04-29T05:05:43.105Z,14.85
2018-04-29T05:08:11.349Z,14.82
2018-04-29T05:10:40.978Z,14.78
2018-04-29T05:13:09.210Z,14.78
2018-04-29T05:15:37.466Z,14.82
2018-04-29T05:18:05.698Z,14.84
2018-04-29T05:20:34.701Z,14.82
2018-04-29T05:23:02.946Z,14.84
2018-04-29T05:25:31.186Z,14.71
2018-04-29T05:27:59.428Z,14.77
2018-04-29T05:30:27.751Z,14.80
2018-04-29T05:32:55.996Z,14.80
2018-04-29T05:35:24.299Z,14.83
2018-04-29T05:37:52.519Z,14.94
2018-04-29T05:40:21.523Z,14.91
2018-04-29T05:42:49.847Z,14.89
2018-04-29T05:45:18.127Z,15.01
2018-04-29T05:47:46.398Z,15.04
2018-04-29T05:50:14.875Z,15.04
2018-04-29T05:52:43.107Z,15.14
2018-04-29T05:55:12.111Z,15.17
2018-04-29T05:57:40.366Z,15.22
2018-04-29T06:00:09.674Z,15.26
2018-04-29T06:02:38.669Z,15.34
2018-04-29T06:05:06.948Z,15.34
2018-04-29T06:07:35.194Z,15.36
2018-04-29T06:10:03.458Z,15.36
2018-04-29T06:12:32.501Z,15.23
2018-04-29T06:15:00.759Z,15.22
2018-04-29T06:17:29.779Z,15.24
2018-04-29T06:19:58.038Z,15.43
2018-04-29T06:22:27.138Z,15.51
2018-04-29T06:24:55.378Z,15.50
2018-04-29T06:27:23.614Z,15.51
2018-04-29T06:29:51.869Z,15.57
2018-04-29T06:32:20.153Z,15.67
2018-04-29T06:34:48.586Z,15.83
2018-04-29T06:37:18.381Z,15.91
2018-04-29T06:39:47.413Z,15.92
2018-04-29T06:42:15.681Z,16.02
2018-04-29T06:44:45.424Z,16.21
2018-04-29T06:47:13.726Z,16.20
2018-04-29T06:49:42.154Z,16.18
2018-04-29T06:52:11.159Z,16.26
2018-04-29T06:54:39.405Z,16.51
2018-04-29T06:57:07.686Z,16.58
2018-04-29T06:59:36.695Z,16.80
2018-04-29T07:02:05.705Z,16.83
2018-04-29T07:04:33.977Z,16.93
2018-04-29T07:07:02.241Z,16.61
2018-04-29T07:09:31.251Z,16.73
2018-04-29T07:11:59.547Z,16.95
2018-04-29T07:14:27.798Z,17.17
2018-04-29T07:16:56.043Z,17.25
2018-04-29T07:19:25.046Z,17.29
2018-04-29T07:21:54.084Z,17.46
2018-04-29T07:24:22.385Z,17.69
2018-04-29T07:26:50.617Z,17.52
2018-04-29T07:29:18.926Z,17.81
2018-04-29T07:31:47.164Z,18.09
2018-04-29T07:34:15.690Z,18.24
2018-04-29T07:36:43.940Z,18.38
2018-04-29T07:39:12.176Z,18.43
2018-04-29T07:41:41.232Z,18.51
2018-04-29T07:44:09.529Z,18.80
2018-04-29T07:46:38.817Z,18.74
2018-04-29T07:49:07.835Z,18.85
2018-04-29T07:51:36.848Z,19.22
2018-04-29T07:54:05.150Z,18.98
2018-04-29T07:56:33.392Z,19.15
2018-04-29T07:59:02.446Z,19.37
2018-04-29T08:01:30.733Z,19.70
2018-04-29T08:03:59.745Z,19.77
2018-04-29T08:06:27.991Z,19.91
2018-04-29T08:08:56.268Z,20.13
2018-04-29T08:11:24.495Z,20.28
2018-04-29T08:13:52.754Z,20.42
2018-04-29T08:16:21.791Z,20.57
2018-04-29T08:18:50.041Z,20.71
2018-04-29T08:21:18.315Z,20.80
2018-04-29T08:23:46.811Z,20.93
2018-04-29T08:26:15.054Z,20.93
2018-04-29T08:28:44.095Z,21.05
2018-04-29T08:31:12.347Z,21.35
2018-04-29T08:33:40.590Z,21.38
2018-04-29T08:36:09.686Z,21.31
2018-04-29T08:38:39.430Z,21.42
2018-04-29T08:41:07.684Z,21.61
2018-04-29T08:43:36.711Z,21.85
2018-04-29T08:46:05.205Z,21.97
2018-04-29T08:48:33.459Z,22.14
2018-04-29T08:51:01.693Z,22.28
2018-04-29T08:53:31.469Z,22.52
2018-04-29T08:55:59.766Z,22.51
2018-04-29T08:58:27.963Z,22.78
2018-04-29T09:00:56.961Z,23.08
2018-04-29T09:03:25.977Z,22.84
2018-04-29T09:05:54.229Z,23.22
2018-04-29T09:08:23.489Z,23.58
2018-04-29T09:10:51.717Z,23.79
2018-04-29T09:13:20.002Z,23.88
2018-04-29T09:15:48.259Z,24.04
2018-04-29T09:18:16.531Z,23.94
2018-04-29T09:20:45.542Z,23.79
2018-04-29T09:23:13.795Z,24.13
2018-04-29T09:25:42.809Z,24.16
2018-04-29T09:28:11.321Z,24.37
2018-04-29T09:30:39.554Z,23.86
2018-04-29T09:33:08.554Z,24.24
2018-04-29T09:35:36.870Z,24.55
2018-04-29T09:38:05.118Z,24.30
2018-04-29T09:40:33.354Z,24.58
2018-04-29T09:43:02.428Z,24.85
2018-04-29T09:45:30.700Z,25.21
2018-04-29T09:47:58.930Z,25.43
2018-04-29T09:50:27.986Z,25.32
2018-04-29T09:52:57.763Z,25.32
2018-04-29T09:55:26.042Z,25.44
2018-04-29T09:57:55.006Z,25.80
2018-04-29T10:00:27.222Z,25.92
2018-04-29T10:03:01.169Z,26.03
2018-04-29T10:05:30.271Z,26.30
2018-04-29T10:07:59.282Z,26.49
2018-04-29T10:10:27.514Z,26.62
2018-04-29T10:12:57.273Z,26.44
2018-04-29T10:15:25.559Z,26.58
2018-04-29T10:17:53.802Z,26.63
2018-04-29T10:20:22.813Z,26.67
2018-04-29T10:22:51.083Z,26.39
2018-04-29T10:25:19.654Z,26.53
2018-04-29T10:27:47.950Z,26.25
2018-04-29T10:30:16.198Z,26.15
2018-04-29T10:32:45.295Z,25.91
2018-04-29T10:35:13.474Z,25.57
2018-04-29T10:37:42.496Z,25.44
2018-04-29T10:40:10.761Z,25.41
2018-04-29T10:42:39.044Z,25.05
2018-04-29T10:45:07.556Z,25.23
2018-04-29T10:47:35.823Z,25.35
2018-04-29T10:50:04.115Z,25.55
2018-04-29T10:52:32.446Z,25.57
2018-04-29T10:55:01.430Z,25.63
2018-04-29T10:57:29.715Z,25.69
2018-04-29T10:59:58.742Z,25.58
2018-04-29T11:02:26.982Z,25.57
2018-04-29T11:04:56.047Z,26.05
2018-04-29T11:07:24.310Z,26.29
2018-04-29T11:09:52.566Z,26.48
2018-04-29T11:12:20.819Z,26.65
2018-04-29T11:14:49.074Z,26.54
2018-04-29T11:17:17.371Z,26.95
2018-04-29T11:19:45.642Z,26.99
2018-04-29T11:22:13.919Z,26.80
2018-04-29T11:24:42.123Z,26.35
2018-04-29T11:27:12.051Z,26.77
2018-04-29T11:29:40.289Z,27.03
2018-04-29T11:32:08.591Z,26.71
2018-04-29T11:34:36.842Z,27.09
2018-04-29T11:37:05.140Z,27.23
2018-04-29T11:39:33.394Z,27.21
2018-04-29T11:42:01.650Z,27.45
2018-04-29T11:44:29.937Z,27.45
2018-04-29T11:46:58.235Z,27.49
2018-04-29T11:49:26.472Z,27.56
2018-04-29T11:51:55.475Z,27.61
2018-04-29T11:54:24.154Z,27.58
2018-04-29T11:56:52.433Z,27.79
2018-04-29T11:59:20.726Z,27.75
2018-04-29T12:01:49.311Z,27.76
2018-04-29T12:04:17.472Z,27.93
2018-04-29T12:06:45.726Z,27.85
2018-04-29T12:09:14.790Z,27.98
2018-04-29T12:11:43.050Z,27.82
2018-04-29T12:14:11.280Z,28.00
2018-04-29T12:16:40.335Z,27.92
2018-04-29T12:19:10.097Z,27.85
2018-04-29T12:21:38.358Z,27.83
2018-04-29T12:24:06.656Z,27.97
2018-04-29T12:26:34.971Z,27.97
2018-04-29T12:29:04.020Z,28.13
2018-04-29T12:31:32.308Z,28.16
2018-04-29T12:34:00.574Z,28.07
2018-04-29T12:36:28.854Z,28.30
2018-04-29T12:38:57.096Z,28.39
2018-04-29T12:41:26.117Z,28.42
2018-04-29T12:43:54.405Z,28.46
2018-04-29T12:46:22.640Z,28.35
2018-04-29T12:48:51.651Z,28.18
2018-04-29T12:51:20.210Z,27.93
2018-04-29T12:53:48.431Z,27.93
2018-04-29T12:56:16.669Z,27.83
2018-04-29T12:58:45.715Z,28.14
2018-04-29T13:01:14.735Z,28.01
2018-04-29T13:03:43.733Z,28.07
2018-04-29T13:06:13.489Z,28.23
2018-04-29T13:08:41.774Z,28.24
2018-04-29T13:11:10.067Z,28.32
2018-04-29T13:13:38.560Z,28.32
2018-04-29T13:16:06.808Z,28.38
2018-04-29T13:18:35.045Z,28.49
2018-04-29T13:21:04.150Z,28.54
2018-04-29T13:23:33.211Z,28.43
2018-04-29T13:26:02.259Z,28.70
2018-04-29T13:28:30.509Z,28.79
2018-04-29T13:30:59.567Z,29.00
2018-04-29T13:33:27.809Z,28.76
2018-04-29T13:35:56.110Z,28.80
2018-04-29T13:38:24.337Z,28.94
2018-04-29T13:40:52.598Z,28.68
2018-04-29T13:43:20.883Z,28.70
2018-04-29T13:45:49.881Z,28.73
2018-04-29T13:48:18.118Z,28.72
2018-04-29T13:50:47.146Z,28.71
2018-04-29T13:53:16.145Z,28.63
2018-04-29T13:55:44.394Z,28.42
2018-04-29T13:58:13.670Z,28.34
2018-04-29T14:00:41.898Z,28.57
2018-04-29T14:03:10.147Z,28.71
2018-04-29T14:05:38.393Z,28.49
2018-04-29T14:08:07.418Z,28.52
2018-04-29T14:10:36.448Z,28.59
2018-04-29T14:13:05.449Z,28.57
2018-04-29T14:15:33.685Z,28.69
2018-04-29T14:18:02.707Z,28.77
2018-04-29T14:20:30.941Z,28.93
2018-04-29T14:22:59.174Z,28.95
2018-04-29T14:25:27.422Z,29.08
2018-04-29T14:27:55.659Z,28.92
2018-04-29T14:30:24.686Z,28.92
2018-04-29T14:32:52.930Z,28.85
2018-04-29T14:35:21.163Z,28.78
2018-04-29T14:37:49.425Z,28.87
2018-04-29T14:40:17.670Z,28.85
2018-04-29T14:42:46.678Z,28.94
2018-04-29T14:45:15.690Z,28.77
2018-04-29T14:47:43.977Z,28.70
2018-04-29T14:50:12.209Z,28.80
2018-04-29T14:52:41.221Z,28.52
2018-04-29T14:55:09.520Z,28.48
2018-04-29T14:57:37.763Z,28.43
2018-04-29T15:00:06.774Z,28.13
2018-04-29T15:02:35.018Z,28.04
2018-04-29T15:05:04.034Z,27.85
2018-04-29T15:07:32.294Z,27.87
2018-04-29T15:10:01.306Z,27.72
2018-04-29T15:12:29.558Z,27.55
2018-04-29T15:14:58.561Z,27.37
2018-04-29T15:17:27.584Z,27.23
2018-04-29T15:19:55.849Z,27.05
2018-04-29T15:22:24.117Z,26.86
2018-04-29T15:24:52.388Z,26.82
2018-04-29T15:27:21.398Z,26.62
2018-04-29T15:29:49.649Z,26.46
2018-04-29T15:32:18.658Z,26.36
2018-04-29T15:34:47.925Z,26.32
2018-04-29T15:37:16.161Z,26.26
2018-04-29T15:39:44.428Z,26.24
2018-04-29T15:42:12.686Z,26.08
2018-04-29T15:44:40.962Z,26.06
2018-04-29T15:47:09.210Z,26.11
2018-04-29T15:49:38.231Z,26.09
2018-04-29T15:52:06.474Z,26.04
2018-04-29T15:54:35.474Z,26.00
2018-04-29T15:57:04.512Z,26.05
2018-04-29T15:59:32.825Z,26.07
2018-04-29T16:02:01.761Z,26.12
2018-04-29T16:04:30.165Z,26.15
2018-04-29T16:06:58.409Z,26.19
2018-04-29T16:09:27.411Z,26.16
2018-04-29T16:11:55.657Z,26.26
2018-04-29T16:14:24.678Z,26.21
2018-04-29T16:16:52.918Z,26.25
2018-04-29T16:19:21.983Z,26.25
2018-04-29T16:21:50.230Z,26.19
2018-04-29T16:24:18.517Z,26.23
2018-04-29T16:26:46.803Z,26.20
2018-04-29T16:29:15.097Z,26.21
2018-04-29T16:31:43.331Z,26.14
2018-04-29T16:34:11.598Z,26.12
2018-04-29T16:36:39.841Z,25.58
2018-04-29T16:39:08.867Z,25.29
2018-04-29T16:41:37.871Z,25.25
2018-04-29T16:44:06.132Z,25.20
2018-04-29T16:46:35.151Z,25.22
2018-04-29T16:49:03.386Z,25.20
2018-04-29T16:51:32.410Z,25.36
2018-04-29T16:54:00.688Z,25.38
2018-04-29T16:56:28.924Z,25.49
2018-04-29T16:58:57.922Z,25.48
2018-04-29T17:01:26.942Z,25.57
2018-04-29T17:03:55.195Z,25.55
2018-04-29T17:06:24.208Z,25.50
2018-04-29T17:08:52.497Z,25.43
2018-04-29T17:11:20.966Z,25.44
2018-04-29T17:13:49.193Z,25.44
2018-04-29T17:16:17.457Z,25.41
2018-04-29T17:18:45.746Z,25.35
2018-04-29T17:21:14.788Z,25.22
2018-04-29T17:23:43.055Z,25.22
2018-04-29T17:26:12.177Z,25.15
2018-04-29T17:28:40.470Z,25.17
2018-04-29T17:31:08.772Z,25.08
2018-04-29T17:33:38.568Z,25.11
2018-04-29T17:36:06.855Z,24.97
2018-04-29T17:38:36.787Z,24.87
2018-04-29T17:41:06.573Z,24.84
2018-04-29T17:43:34.857Z,24.76
2018-04-29T17:46:03.112Z,24.75
2018-04-29T17:48:31.411Z,24.68
2018-04-29T17:50:59.681Z,24.70
2018-04-29T17:53:28.715Z,24.57
2018-04-29T17:55:57.027Z,24.54
2018-04-29T17:58:25.351Z,24.48
2018-04-29T18:00:55.135Z,24.46
2018-04-29T18:03:23.442Z,24.41
2018-04-29T18:05:53.145Z,24.34
2018-04-29T18:08:22.205Z,24.23
2018-04-29T18:10:50.473Z,24.22
2018-04-29T18:13:18.771Z,24.18
2018-04-29T18:15:47.032Z,24.08
2018-04-29T18:18:15.326Z,24.07
2018-04-29T18:20:43.697Z,23.96
2018-04-29T18:23:11.982Z,23.90
2018-04-29T18:25:40.273Z,23.81
2018-04-29T18:28:09.299Z,23.80
2018-04-29T18:30:37.647Z,23.74
2018-04-29T18:33:06.710Z,23.60
2018-04-29T18:35:34.990Z,23.61
2018-04-29T18:38:03.264Z,23.48
2018-04-29T18:40:31.548Z,23.45
2018-04-29T18:42:59.861Z,23.38
2018-04-29T18:45:28.415Z,23.33
2018-04-29T18:47:57.444Z,23.29
2018-04-29T18:50:26.568Z,23.29
2018-04-29T18:52:55.614Z,23.22
2018-04-29T18:55:24.651Z,23.21
2018-04-29T18:57:52.932Z,23.17
2018-04-29T19:00:21.427Z,23.16
2018-04-29T19:02:49.744Z,23.10
2018-04-29T19:05:18.857Z,23.08
2018-04-29T19:07:47.894Z,23.05
2018-04-29T19:10:16.182Z,23.04
2018-04-29T19:12:44.550Z,22.87
2018-04-29T19:15:12.798Z,22.95
2018-04-29T19:17:41.146Z,22.82
2018-04-29T19:20:10.163Z,22.79
2018-04-29T19:22:38.406Z,22.78
2018-04-29T19:25:07.430Z,22.80
2018-04-29T19:27:35.670Z,22.81
2018-04-29T19:30:04.682Z,22.73
2018-04-29T19:32:33.698Z,22.70
2018-04-29T19:35:01.973Z,22.76
2018-04-29T19:37:30.979Z,22.80
2018-04-29T19:39:59.218Z,22.74
2018-04-29T19:42:28.222Z,22.69
2018-04-29T19:44:57.226Z,22.70
2018-04-29T19:47:25.485Z,22.69
2018-04-29T19:49:54.486Z,22.70
2018-04-29T19:52:23.482Z,22.63
2018-04-29T19:54:51.741Z,22.57
2018-04-29T19:57:20.889Z,22.62
2018-04-29T19:59:49.225Z,22.52
2018-04-29T20:02:18.299Z,22.51
2018-04-29T20:04:48.054Z,22.50
2018-04-29T20:07:16.297Z,22.53
2018-04-29T20:09:45.313Z,22.42
2018-04-29T20:12:13.555Z,22.48
2018-04-29T20:14:42.810Z,22.43
2018-04-29T20:17:11.043Z,22.35
2018-04-29T20:19:40.071Z,22.30
2018-04-29T20:22:08.386Z,22.27
2018-04-29T20:24:36.677Z,22.24
2018-04-29T20:27:05.728Z,22.29
2018-04-29T20:29:34.024Z,22.22
2018-04-29T20:32:02.333Z,22.15
2018-04-29T20:34:30.585Z,22.00
2018-04-29T20:36:59.807Z,21.99
2018-04-29T20:39:28.823Z,21.91
2018-04-29T20:41:57.078Z,21.95
2018-04-29T20:44:26.152Z,21.83
2018-04-29T20:46:54.417Z,21.70
2018-04-29T20:49:22.729Z,21.69
2018-04-29T20:51:51.043Z,21.68
2018-04-29T20:54:19.341Z,21.68
2018-04-29T20:56:49.152Z,21.64
2018-04-29T20:59:18.959Z,21.59
2018-04-29T21:01:48.044Z,21.54
2018-04-29T21:04:16.331Z,21.44
2018-04-29T21:06:44.658Z,21.48
2018-04-29T21:09:12.962Z,21.45
2018-04-29T21:11:41.262Z,21.46
2018-04-29T21:14:09.795Z,21.46
2018-04-29T21:16:38.041Z,21.42
2018-04-29T21:19:07.815Z,21.41
2018-04-29T21:21:36.097Z,21.31
2018-04-29T21:24:04.389Z,21.22
2018-04-29T21:26:32.753Z,21.16
2018-04-29T21:29:01.042Z,21.18
2018-04-29T21:31:29.322Z,21.20
2018-04-29T21:33:57.599Z,21.22
2018-04-29T21:36:25.908Z,21.23
2018-04-29T21:38:54.209Z,21.25
2018-04-29T21:41:22.509Z,21.24
2018-04-29T21:43:50.804Z,21.14
2018-04-29T21:46:19.277Z,21.11
2018-04-29T21:48:47.570Z,21.07
2018-04-29T21:51:16.629Z,20.98
2018-04-29T21:53:44.925Z,20.99
2018-04-29T21:56:13.261Z,20.95
2018-04-29T21:58:42.273Z,20.96
2018-04-29T22:01:10.555Z,20.94
2018-04-29T22:03:38.851Z,20.92
2018-04-29T22:06:08.171Z,20.89
2018-04-29T22:08:37.222Z,20.88
2018-04-29T22:11:05.601Z,20.81
2018-04-29T22:13:34.637Z,20.81
2018-04-29T22:16:02.938Z,20.85
2018-04-29T22:18:31.995Z,20.83
2018-04-29T22:21:00.277Z,20.83
2018-04-29T22:23:28.554Z,20.75
2018-04-29T22:25:56.863Z,20.80
2018-04-29T22:28:25.147Z,20.76
2018-04-29T22:30:53.469Z,20.71
2018-04-29T22:33:22.823Z,20.64
2018-04-29T22:35:51.138Z,20.59
2018-04-29T22:38:19.429Z,20.63
2018-04-29T22:40:47.708Z,20.63
2018-04-29T22:43:16.004Z,20.56
2018-04-29T22:45:45.072Z,20.61
2018-04-29T22:48:13.346Z,20.55
2018-04-29T22:50:41.623Z,20.55
2018-04-29T22:53:09.916Z,20.51
2018-04-29T22:55:39.003Z,20.54
2018-04-29T22:58:07.256Z,20.39
2018-04-29T23:00:35.561Z,20.40
2018-04-29T23:03:03.800Z,20.29
2018-04-29T23:05:32.098Z,20.28
2018-04-29T23:08:00.374Z,20.28
2018-04-29T23:10:28.650Z,20.29
2018-04-29T23:12:56.940Z,20.22
2018-04-29T23:15:25.225Z,20.24
2018-04-29T23:17:55.015Z,20.27
2018-04-29T23:20:23.316Z,20.24
2018-04-29T23:22:52.400Z,20.23
2018-04-29T23:25:20.738Z,20.28
2018-04-29T23:27:49.159Z,20.31
2018-04-29T23:30:18.247Z,20.25
2018-04-29T23:32:46.514Z,20.27
2018-04-29T23:35:14.800Z,20.21
2018-04-29T23:37:44.595Z,20.18
2018-04-29T23:40:12.887Z,20.22
2018-04-29T23:42:41.166Z,20.19
2018-04-29T23:45:09.431Z,20.18
2018-04-29T23:47:37.790Z,20.15
2018-04-29T23:50:05.984Z,20.03
2018-04-29T23:52:34.264Z,20.06
2018-04-29T23:55:02.553Z,20.03
2018-04-29T23:57:31.730Z,19.87
